createdAt,value
2022-12-04T00:00:14.659Z,101804.78
2022-12-04T00:00:46.153Z,101803.13
2022-12-04T00:01:22.693Z,101798.97
2022-12-04T00:01:54.455Z,101805.72
2022-12-04T00:02:26.221Z,101797.88
2022-12-04T00:02:58.173Z,101796.94
2022-12-04T00:03:29.782Z,101803.59
2022-12-04T00:04:01.457Z,101798.38
2022-12-04T00:04:33.049Z,101793.13
2022-12-04T00:05:05.998Z,101793.97
2022-12-04T00:05:37.628Z,101800.88
2022-12-04T00:06:14.589Z,101808.50
2022-12-04T00:06:46.087Z,101802.19
2022-12-04T00:07:18.395Z,101801.94
2022-12-04T00:07:50.881Z,101797.78
2022-12-04T00:08:22.386Z,101797.66
2022-12-04T00:08:54.561Z,101801.94
2022-12-04T00:09:26.323Z,101796.81
2022-12-04T00:09:57.790Z,101795.16
2022-12-04T00:10:29.367Z,101795.28
2022-12-04T00:11:01.352Z,101793.63
2022-12-04T00:11:33.639Z,101800.28
2022-12-04T00:12:05.408Z,101792.19
2022-12-04T00:12:36.864Z,101798.38
2022-12-04T00:13:08.314Z,101800.03
2022-12-04T00:13:40.281Z,101796.72
2022-12-04T00:14:11.735Z,101804.81
2022-12-04T00:15:16.390Z,101790.06
2022-12-04T00:15:34.623Z,101787.31
2022-12-04T00:16:10.099Z,101784.81
2022-12-04T00:16:41.776Z,101790.53
2022-12-04T00:17:13.469Z,101785.66
2022-12-04T00:17:48.214Z,101790.06
2022-12-04T00:18:20.061Z,101786.50
2022-12-04T00:18:51.944Z,101784.81
2022-12-04T00:19:23.464Z,101782.22
2022-12-04T00:19:55.202Z,101782.22
2022-12-04T00:20:27.202Z,101784.81
2022-12-04T00:20:58.706Z,101785.66
2022-12-04T00:21:30.176Z,101788.16
2022-12-04T00:22:01.642Z,101781.72
2022-12-04T00:22:33.314Z,101780.66
2022-12-04T00:23:04.781Z,101785.75
2022-12-04T00:23:37.537Z,101783.16
2022-12-04T00:24:08.991Z,101782.44
2022-12-04T00:24:40.632Z,101783.38
2022-12-04T00:25:12.401Z,101784.34
2022-12-04T00:25:48.530Z,101785.28
2022-12-04T00:26:25.673Z,101777.69
2022-12-04T00:26:57.126Z,101779.59
2022-12-04T00:27:28.599Z,101777.94
2022-12-04T00:28:00.775Z,101779.59
2022-12-04T00:28:32.924Z,101783.16
2022-12-04T00:29:04.502Z,101776.97
2022-12-04T00:29:37.001Z,101776.03
2022-12-04T00:30:09.032Z,101778.53
2022-12-04T00:30:41.985Z,101783.63
2022-12-04T00:31:16.854Z,101776.50
2022-12-04T00:31:48.470Z,101779.69
2022-12-04T00:32:19.998Z,101786.59
2022-12-04T00:32:51.478Z,101777.19
2022-12-04T00:33:23.254Z,101781.59
2022-12-04T00:33:55.242Z,101782.44
2022-12-04T00:34:28.249Z,101773.28
2022-12-04T00:34:59.797Z,101782.69
2022-12-04T00:35:31.250Z,101784.59
2022-12-04T00:36:06.575Z,101779.34
2022-12-04T00:36:38.234Z,101782.91
2022-12-04T00:37:09.730Z,101783.16
2022-12-04T00:37:41.186Z,101781.25
2022-12-04T00:38:12.899Z,101784.59
2022-12-04T00:38:44.977Z,101779.84
2022-12-04T00:39:16.493Z,101788.38
2022-12-04T00:39:47.932Z,101778.75
2022-12-04T00:40:19.418Z,101788.16
2022-12-04T00:40:51.765Z,101779.34
2022-12-04T00:41:24.901Z,101783.75
2022-12-04T00:41:56.393Z,101789.56
2022-12-04T00:42:27.969Z,101779.09
2022-12-04T00:42:59.432Z,101779.94
2022-12-04T00:43:31.401Z,101785.06
2022-12-04T00:44:03.432Z,101780.78
2022-12-04T00:44:34.883Z,101789.56
2022-12-04T00:45:06.941Z,101787.06
2022-12-04T00:45:38.541Z,101790.88
2022-12-04T00:46:10.401Z,101775.19
2022-12-04T00:46:41.963Z,101785.16
2022-12-04T00:47:13.557Z,101786.25
2022-12-04T00:47:45.204Z,101781.25
2022-12-04T00:48:16.657Z,101781.97
2022-12-04T00:48:48.256Z,101784.34
2022-12-04T00:49:19.730Z,101789.56
2022-12-04T00:49:51.187Z,101787.19
2022-12-04T00:50:22.832Z,101786.59
2022-12-04T00:50:55.429Z,101782.34
2022-12-04T00:51:26.973Z,101777.81
2022-12-04T00:51:58.565Z,101788.97
2022-12-04T00:52:30.072Z,101782.69
2022-12-04T00:53:01.912Z,101786.84
2022-12-04T00:53:33.407Z,101789.31
2022-12-04T00:54:04.874Z,101784.09
2022-12-04T00:54:36.316Z,101786.84
2022-12-04T00:55:08.351Z,101789.44
2022-12-04T00:55:41.146Z,101792.44
2022-12-04T00:56:18.448Z,101783.63
2022-12-04T00:56:50.164Z,101787.91
2022-12-04T00:57:21.617Z,101785.16
2022-12-04T00:57:58.427Z,101787.91
2022-12-04T00:58:31.313Z,101789.56
2022-12-04T00:59:02.976Z,101785.16
2022-12-04T00:59:34.559Z,101786.00
2022-12-04T01:00:08.427Z,101788.63
2022-12-04T01:00:41.532Z,101790.53
2022-12-04T01:01:16.180Z,101786.00
2022-12-04T01:01:47.657Z,101789.31
2022-12-04T01:02:19.102Z,101786.25
2022-12-04T01:02:50.591Z,101788.28
2022-12-04T01:03:22.113Z,101781.50
2022-12-04T01:03:54.727Z,101787.44
2022-12-04T01:04:26.277Z,101788.28
2022-12-04T01:04:57.779Z,101788.38
2022-12-04T01:05:29.364Z,101783.88
2022-12-04T01:06:01.057Z,101788.38
2022-12-04T01:06:34.253Z,101788.50
2022-12-04T01:07:05.966Z,101786.72
2022-12-04T01:07:37.872Z,101781.50
2022-12-04T01:08:10.357Z,101797.19
2022-12-04T01:08:41.909Z,101789.22
2022-12-04T01:09:13.414Z,101793.38
2022-12-04T01:09:44.872Z,101793.25
2022-12-04T01:10:16.402Z,101787.06
2022-12-04T01:10:47.874Z,101790.75
2022-12-04T01:11:20.834Z,101791.97
2022-12-04T01:11:52.274Z,101794.34
2022-12-04T01:12:23.782Z,101788.28
2022-12-04T01:12:55.208Z,101792.19
2022-12-04T01:13:27.059Z,101794.56
2022-12-04T01:13:59.805Z,101794.56
2022-12-04T01:14:31.509Z,101791.22
2022-12-04T01:15:03.083Z,101792.91
2022-12-04T01:15:38.743Z,101795.03
2022-12-04T01:16:16.917Z,101791.72
2022-12-04T01:16:48.667Z,101799.31
2022-12-04T01:17:20.248Z,101791.22
2022-12-04T01:17:51.871Z,101791.81
2022-12-04T01:18:23.306Z,101795.28
2022-12-04T01:18:55.179Z,101795.50
2022-12-04T01:19:26.639Z,101785.28
2022-12-04T01:19:58.323Z,101791.47
2022-12-04T01:20:29.824Z,101788.75
2022-12-04T01:21:01.276Z,101793.13
2022-12-04T01:21:33.087Z,101794.81
2022-12-04T01:22:04.551Z,101795.75
2022-12-04T01:22:36.045Z,101794.09
2022-12-04T01:23:07.546Z,101795.03
2022-12-04T01:23:38.985Z,101801.00
2022-12-04T01:24:10.727Z,101801.94
2022-12-04T01:24:42.225Z,101798.38
2022-12-04T01:25:13.932Z,101793.38
2022-12-04T01:25:56.573Z,101793.13
2022-12-04T01:26:28.200Z,101800.03
2022-12-04T01:26:59.739Z,101792.91
2022-12-04T01:27:31.415Z,101791.94
2022-12-04T01:28:02.886Z,101793.59
2022-12-04T01:28:34.617Z,101789.09
2022-12-04T01:29:06.229Z,101789.91
2022-12-04T01:29:38.089Z,101789.91
2022-12-04T01:30:09.885Z,101791.69
2022-12-04T01:30:41.347Z,101793.38
2022-12-04T01:31:15.044Z,101799.31
2022-12-04T01:31:47.736Z,101789.78
2022-12-04T01:32:19.325Z,101790.75
2022-12-04T01:32:50.770Z,101787.53
2022-12-04T01:33:22.196Z,101790.41
2022-12-04T01:33:53.890Z,101790.28
2022-12-04T01:34:25.404Z,101787.66
2022-12-04T01:34:56.928Z,101790.16
2022-12-04T01:35:28.378Z,101784.94
2022-12-04T01:36:01.521Z,101787.41
2022-12-04T01:36:33.005Z,101788.25
2022-12-04T01:37:04.726Z,101787.66
2022-12-04T01:37:36.314Z,101785.41
2022-12-04T01:38:07.834Z,101786.25
2022-12-04T01:38:40.440Z,101785.28
2022-12-04T01:39:12.193Z,101792.19
2022-12-04T01:39:43.820Z,101784.34
2022-12-04T01:40:16.457Z,101781.84
2022-12-04T01:40:48.496Z,101782.44
2022-12-04T01:41:23.158Z,101790.28
2022-12-04T01:41:54.597Z,101794.44
2022-12-04T01:42:26.573Z,101789.31
2022-12-04T01:42:59.709Z,101791.94
2022-12-04T01:43:32.984Z,101790.16
2022-12-04T01:44:13.543Z,101793.59
2022-12-04T01:45:23.561Z,101791.22
2022-12-04T01:45:56.897Z,101785.16
2022-12-04T01:46:28.472Z,101787.66
2022-12-04T01:47:01.143Z,101787.41
2022-12-04T01:47:32.688Z,101786.84
2022-12-04T01:48:22.715Z,101780.19
2022-12-04T01:48:54.421Z,101784.34
2022-12-04T01:49:31.633Z,101786.25
2022-12-04T01:50:03.148Z,101783.63
2022-12-04T01:50:34.654Z,101783.50
2022-12-04T01:51:18.606Z,101793.84
2022-12-04T01:52:12.869Z,101780.78
2022-12-04T01:52:44.302Z,101784.47
2022-12-04T01:53:15.994Z,101784.34
2022-12-04T01:53:51.915Z,101784.09
2022-12-04T01:54:30.212Z,101778.75
2022-12-04T01:55:01.815Z,101782.91
2022-12-04T01:55:33.424Z,101782.91
2022-12-04T01:56:05.488Z,101782.19
2022-12-04T01:56:43.589Z,101777.78
2022-12-04T01:57:23.496Z,101780.53
2022-12-04T01:57:56.289Z,101775.28
2022-12-04T01:58:32.281Z,101781.34
2022-12-04T01:59:04.477Z,101776.97
2022-12-04T01:59:40.609Z,101780.53
2022-12-04T02:00:15.976Z,101775.53
2022-12-04T02:00:51.719Z,101773.63
2022-12-04T02:01:24.121Z,101778.03
2022-12-04T02:02:07.794Z,101778.28
2022-12-04T02:02:42.255Z,101776.50
2022-12-04T02:03:14.323Z,101777.69
2022-12-04T02:03:45.862Z,101779.34
2022-12-04T02:04:17.374Z,101776.72
2022-12-04T02:04:48.966Z,101780.19
2022-12-04T02:05:21.769Z,101774.81
2022-12-04T02:05:53.282Z,101777.44
2022-12-04T02:06:24.728Z,101774.13
2022-12-04T02:06:56.233Z,101779.09
2022-12-04T02:07:28.318Z,101779.09
2022-12-04T02:08:03.103Z,101781.00
2022-12-04T02:08:36.000Z,101776.03
2022-12-04T02:09:07.481Z,101774.38
2022-12-04T02:09:39.600Z,101778.53
2022-12-04T02:10:12.020Z,101776.72
2022-12-04T02:10:50.125Z,101773.16
2022-12-04T02:11:29.832Z,101768.88
2022-12-04T02:12:32.755Z,101779.34
2022-12-04T02:13:23.884Z,101778.41
2022-12-04T02:14:04.244Z,101774.38
2022-12-04T02:14:46.322Z,101777.94
2022-12-04T02:15:22.559Z,101775.19
2022-12-04T02:16:00.074Z,101773.28
2022-12-04T02:17:04.072Z,101774.13
2022-12-04T02:17:59.009Z,101778.53
2022-12-04T02:18:57.624Z,101774.38
2022-12-04T02:19:34.291Z,101779.72
2022-12-04T02:20:15.723Z,101781.50
2022-12-04T02:21:05.092Z,101774.59
2022-12-04T02:21:39.210Z,101779.00
2022-12-04T02:22:24.369Z,101779.72
2022-12-04T02:23:19.165Z,101773.53
2022-12-04T02:24:03.554Z,101770.22
2022-12-04T02:24:50.129Z,101775.31
2022-12-04T02:25:44.109Z,101779.00
2022-12-04T02:26:40.537Z,101780.53
2022-12-04T02:27:39.810Z,101778.38
2022-12-04T02:28:30.673Z,101779.34
2022-12-04T02:29:09.005Z,101785.31
2022-12-04T02:29:57.658Z,101775.78
2022-12-04T02:30:31.159Z,101776.50
2022-12-04T02:31:03.972Z,101775.56
2022-12-04T02:31:41.528Z,101785.06
2022-12-04T02:32:19.984Z,101779.59
2022-12-04T02:33:04.124Z,101776.84
2022-12-04T02:33:46.090Z,101780.19
2022-12-04T02:34:25.090Z,101772.47
2022-12-04T02:35:01.689Z,101767.94
2022-12-04T02:35:41.002Z,101774.59
2022-12-04T02:36:28.733Z,101768.19
2022-12-04T02:37:09.554Z,101773.28
2022-12-04T02:37:46.019Z,101772.22
2022-12-04T02:38:33.161Z,101773.41
2022-12-04T02:39:10.172Z,101772.34
2022-12-04T02:39:46.922Z,101771.75
2022-12-04T02:40:25.810Z,101769.00
2022-12-04T02:41:09.988Z,101772.47
2022-12-04T02:42:06.376Z,101765.81
2022-12-04T02:42:50.152Z,101773.53
2022-12-04T02:43:27.335Z,101762.94
2022-12-04T02:44:05.104Z,101767.81
2022-12-04T02:44:50.109Z,101773.28
2022-12-04T02:45:26.253Z,101764.38
2022-12-04T02:46:07.925Z,101768.66
2022-12-04T02:46:43.733Z,101761.50
2022-12-04T02:47:19.394Z,101759.13
2022-12-04T02:47:51.603Z,101765.78
2022-12-04T02:48:24.369Z,101763.88
2022-12-04T02:48:58.941Z,101770.06
2022-12-04T02:49:38.130Z,101775.28
2022-12-04T02:50:13.400Z,101764.00
2022-12-04T02:50:47.828Z,101773.03
2022-12-04T02:51:20.948Z,101766.97
2022-12-04T02:51:53.691Z,101769.34
2022-12-04T02:52:35.682Z,101768.41
2022-12-04T02:53:16.777Z,101764.47
2022-12-04T02:53:52.455Z,101769.34
2022-12-04T02:54:34.746Z,101759.84
2022-12-04T02:55:09.942Z,101768.97
2022-12-04T02:55:48.489Z,101764.59
2022-12-04T02:56:24.186Z,101762.44
2022-12-04T02:56:56.314Z,101771.47
2022-12-04T02:57:31.966Z,101762.91
2022-12-04T02:58:16.172Z,101764.72
2022-12-04T02:58:51.866Z,101765.41
2022-12-04T02:59:28.454Z,101768.16
2022-12-04T03:00:00.566Z,101761.50
2022-12-04T03:00:32.749Z,101760.09
2022-12-04T03:01:19.456Z,101758.41
2022-12-04T03:01:56.515Z,101763.53
2022-12-04T03:02:34.347Z,101754.84
2022-12-04T03:03:09.032Z,101761.75
2022-12-04T03:03:40.512Z,101762.47
2022-12-04T03:04:17.724Z,101751.03
2022-12-04T03:04:50.917Z,101756.28
2022-12-04T03:05:38.892Z,101757.94
2022-12-04T03:06:11.713Z,101761.75
2022-12-04T03:06:44.883Z,101757.34
2022-12-04T03:07:30.787Z,101755.69
2022-12-04T03:08:06.218Z,101752.94
2022-12-04T03:08:42.597Z,101751.88
2022-12-04T03:09:19.999Z,101756.03
2022-12-04T03:09:56.333Z,101758.41
2022-12-04T03:10:31.988Z,101750.53
2022-12-04T03:11:04.054Z,101759.34
2022-12-04T03:11:36.445Z,101756.63
2022-12-04T03:12:18.033Z,101752.47
2022-12-04T03:12:54.271Z,101754.13
2022-12-04T03:13:37.551Z,101752.47
2022-12-04T03:14:15.900Z,101749.13
2022-12-04T03:14:55.587Z,101759.59
2022-12-04T03:15:48.648Z,101757.94
2022-12-04T03:16:25.005Z,101759.84
2022-12-04T03:17:02.227Z,101760.09
2022-12-04T03:17:37.530Z,101761.16
2022-12-04T03:18:29.175Z,101755.09
2022-12-04T03:19:22.104Z,101751.53
2022-12-04T03:19:57.863Z,101758.66
2022-12-04T03:20:31.656Z,101755.09
2022-12-04T03:21:06.885Z,101754.16
2022-12-04T03:21:42.010Z,101746.53
2022-12-04T03:22:16.035Z,101750.13
2022-12-04T03:22:52.833Z,101760.44
2022-12-04T03:23:32.598Z,101750.81
2022-12-04T03:24:13.764Z,101750.81
2022-12-04T03:24:55.139Z,101749.28
2022-12-04T03:25:35.484Z,101757.00
2022-12-04T03:26:23.680Z,101757.00
2022-12-04T03:27:10.266Z,101751.78
2022-12-04T03:27:51.537Z,101750.81
2022-12-04T03:28:34.947Z,101751.78
2022-12-04T03:29:18.375Z,101751.78
2022-12-04T03:29:56.396Z,101749.28
2022-12-04T03:30:37.063Z,101750.13
2022-12-04T03:31:09.893Z,101752.72
2022-12-04T03:31:45.318Z,101739.66
2022-12-04T03:32:35.030Z,101755.09
2022-12-04T03:33:13.331Z,101743.94
2022-12-04T03:33:46.776Z,101741.31
2022-12-04T03:34:51.167Z,101745.84
2022-12-04T03:35:30.730Z,101744.88
2022-12-04T03:36:14.178Z,101743.09
2022-12-04T03:36:56.322Z,101737.41
2022-12-04T03:37:36.312Z,101741.56
2022-12-04T03:38:32.273Z,101742.38
2022-12-04T03:39:11.583Z,101740.09
2022-12-04T03:39:56.523Z,101750.69
2022-12-04T03:40:42.288Z,101745.34
2022-12-04T03:41:27.219Z,101740.84
2022-12-04T03:42:15.337Z,101747.75
2022-12-04T03:42:51.627Z,101752.22
2022-12-04T03:43:56.665Z,101754.63
2022-12-04T03:44:37.812Z,101749.53
2022-12-04T03:45:15.709Z,101748.56
2022-12-04T03:46:04.357Z,101747.50
2022-12-04T03:46:42.825Z,101751.78
2022-12-04T03:47:21.114Z,101748.22
2022-12-04T03:48:00.909Z,101748.22
2022-12-04T03:48:45.665Z,101748.44
2022-12-04T03:49:31.715Z,101743.34
2022-12-04T03:50:15.837Z,101742.38
2022-12-04T03:51:12.580Z,101744.28
2022-12-04T03:51:53.828Z,101737.16
2022-12-04T03:52:50.350Z,101739.66
2022-12-04T03:53:29.862Z,101745.72
2022-12-04T03:54:20.170Z,101739.66
2022-12-04T03:55:20.853Z,101739.53
2022-12-04T03:56:19.261Z,101737.75
2022-12-04T03:56:54.494Z,101743.09
2022-12-04T03:57:30.701Z,101742.25
2022-12-04T03:58:09.598Z,101737.75
2022-12-04T03:58:44.616Z,101739.41
2022-12-04T03:59:23.254Z,101744.63
2022-12-04T04:00:05.952Z,101742.03
2022-12-04T04:00:40.714Z,101746.53
2022-12-04T04:01:13.442Z,101741.44
2022-12-04T04:01:49.173Z,101746.78
2022-12-04T04:02:23.095Z,101747.63
2022-12-04T04:03:04.852Z,101741.56
2022-12-04T04:03:40.029Z,101742.97
2022-12-04T04:04:17.494Z,101743.94
2022-12-04T04:04:51.748Z,101737.97
2022-12-04T04:05:24.142Z,101751.91
2022-12-04T04:06:12.217Z,101745.72
2022-12-04T04:07:01.653Z,101749.88
2022-12-04T04:07:38.294Z,101741.06
2022-12-04T04:08:29.438Z,101748.78
2022-12-04T04:09:05.426Z,101750.94
2022-12-04T04:09:40.618Z,101741.91
2022-12-04T04:10:19.725Z,101747.84
2022-12-04T04:10:53.128Z,101746.88
2022-12-04T04:11:32.859Z,101746.06
2022-12-04T04:12:08.474Z,101744.63
2022-12-04T04:12:45.026Z,101739.41
2022-12-04T04:13:39.639Z,101751.28
2022-12-04T04:14:35.018Z,101747.13
2022-12-04T04:15:28.768Z,101748.22
2022-12-04T04:16:21.830Z,101738.81
2022-12-04T04:17:15.175Z,101750.13
2022-12-04T04:18:06.702Z,101741.31
2022-12-04T04:18:57.300Z,101758.41
2022-12-04T04:19:48.903Z,101752.59
2022-12-04T04:20:44.505Z,101749.28
2022-12-04T04:21:38.008Z,101745.59
2022-12-04T04:22:28.702Z,101751.53
2022-12-04T04:23:20.496Z,101743.22
2022-12-04T04:24:11.054Z,101742.97
2022-12-04T04:24:46.264Z,101743.69
2022-12-04T04:25:20.653Z,101753.19
2022-12-04T04:25:53.032Z,101745.94
2022-12-04T04:26:25.761Z,101747.72
2022-12-04T04:26:58.340Z,101745.81
2022-12-04T04:27:30.097Z,101757.22
2022-12-04T04:28:01.566Z,101749.38
2022-12-04T04:28:35.450Z,101751.28
2022-12-04T04:29:08.156Z,101752.94
2022-12-04T04:29:39.894Z,101740.81
2022-12-04T04:30:11.696Z,101745.81
2022-12-04T04:30:43.191Z,101749.84
2022-12-04T04:31:26.543Z,101750.78
2022-12-04T04:32:22.913Z,101749.38
2022-12-04T04:33:11.637Z,101741.53
2022-12-04T04:34:06.945Z,101745.81
2022-12-04T04:34:45.285Z,101746.06
2022-12-04T04:35:32.274Z,101747.72
2022-12-04T04:36:11.048Z,101742.47
2022-12-04T04:36:55.685Z,101742.59
2022-12-04T04:37:49.626Z,101748.53
2022-12-04T04:38:28.704Z,101748.66
2022-12-04T04:39:11.425Z,101743.44
2022-12-04T04:39:50.438Z,101742.47
2022-12-04T04:40:42.865Z,101743.69
2022-12-04T04:41:24.127Z,101747.97
2022-12-04T04:42:03.479Z,101744.63
2022-12-04T04:43:11.677Z,101742.72
2022-12-04T04:43:55.665Z,101742.72
2022-12-04T04:44:45.135Z,101750.44
2022-12-04T04:45:27.431Z,101752.94
2022-12-04T04:46:04.832Z,101746.88
2022-12-04T04:46:40.125Z,101744.38
2022-12-04T04:47:17.389Z,101747.72
2022-12-04T04:48:02.778Z,101748.53
2022-12-04T04:48:38.566Z,101749.38
2022-12-04T04:49:11.803Z,101757.09
2022-12-04T04:49:43.926Z,101756.03
2022-12-04T04:50:16.761Z,101751.03
2022-12-04T04:50:48.981Z,101752.69
2022-12-04T04:51:20.704Z,101750.78
2022-12-04T04:51:53.711Z,101752.47
2022-12-04T04:52:25.374Z,101754.13
2022-12-04T04:53:02.484Z,101750.78
2022-12-04T04:53:37.648Z,101756.03
2022-12-04T04:54:12.357Z,101747.47
2022-12-04T04:54:44.659Z,101747.72
2022-12-04T04:55:17.721Z,101746.06
2022-12-04T04:55:49.461Z,101749.38
2022-12-04T04:56:21.578Z,101756.28
2022-12-04T04:56:53.016Z,101751.03
2022-12-04T04:57:33.934Z,101750.78
2022-12-04T04:58:16.045Z,101754.25
2022-12-04T04:58:47.642Z,101748.19
2022-12-04T04:59:19.127Z,101757.69
2022-12-04T04:59:51.558Z,101743.66
2022-12-04T05:00:23.201Z,101750.78
2022-12-04T05:01:03.342Z,101757.94
2022-12-04T05:01:35.131Z,101744.72
2022-12-04T05:02:06.671Z,101749.97
2022-12-04T05:02:38.424Z,101751.03
2022-12-04T05:03:09.971Z,101757.81
2022-12-04T05:03:42.185Z,101750.09
2022-12-04T05:04:14.300Z,101759.59
2022-12-04T05:04:45.753Z,101752.00
2022-12-04T05:05:17.570Z,101749.25
2022-12-04T05:05:49.026Z,101751.03
2022-12-04T05:06:20.509Z,101756.03
2022-12-04T05:06:51.944Z,101749.97
2022-12-04T05:07:23.515Z,101754.59
2022-12-04T05:07:54.987Z,101755.56
2022-12-04T05:08:26.616Z,101755.69
2022-12-04T05:08:58.310Z,101748.22
2022-12-04T05:09:29.756Z,101750.69
2022-12-04T05:10:01.247Z,101749.88
2022-12-04T05:10:32.692Z,101754.25
2022-12-04T05:11:04.978Z,101757.59
2022-12-04T05:11:36.536Z,101759.25
2022-12-04T05:12:08.169Z,101747.00
2022-12-04T05:12:39.660Z,101756.63
2022-12-04T05:13:14.382Z,101754.97
2022-12-04T05:13:45.870Z,101765.31
2022-12-04T05:14:17.342Z,101754.25
2022-12-04T05:14:48.846Z,101755.09
2022-12-04T05:15:20.441Z,101758.31
2022-12-04T05:16:03.016Z,101754.84
2022-12-04T05:16:34.677Z,101760.09
2022-12-04T05:17:12.173Z,101761.75
2022-12-04T05:17:44.214Z,101757.34
2022-12-04T05:18:15.683Z,101759.84
2022-12-04T05:19:05.600Z,101758.19
2022-12-04T05:19:56.513Z,101765.06
2022-12-04T05:20:28.316Z,101762.00
2022-12-04T05:20:59.757Z,101761.75
2022-12-04T05:21:31.733Z,101755.69
2022-12-04T05:22:03.233Z,101757.47
2022-12-04T05:22:36.238Z,101759.13
2022-12-04T05:23:07.691Z,101762.47
2022-12-04T05:23:39.155Z,101765.06
2022-12-04T05:24:10.614Z,101767.69
2022-12-04T05:24:42.053Z,101761.50
2022-12-04T05:25:13.749Z,101764.13
2022-12-04T05:25:45.666Z,101761.25
2022-12-04T05:26:17.200Z,101766.50
2022-12-04T05:26:48.678Z,101764.81
2022-12-04T05:27:21.350Z,101765.91
2022-12-04T05:27:52.854Z,101766.75
2022-12-04T05:28:24.358Z,101759.84
2022-12-04T05:28:55.817Z,101759.59
2022-12-04T05:29:30.529Z,101761.38
2022-12-04T05:30:06.673Z,101760.31
2022-12-04T05:30:38.214Z,101763.16
2022-12-04T05:31:09.759Z,101758.88
2022-12-04T05:31:41.318Z,101763.16
2022-12-04T05:32:12.953Z,101764.00
2022-12-04T05:32:44.539Z,101759.59
2022-12-04T05:33:16.034Z,101764.81
2022-12-04T05:33:47.558Z,101761.13
2022-12-04T05:34:19.114Z,101766.50
2022-12-04T05:34:51.765Z,101761.25
2022-12-04T05:35:23.431Z,101756.84
2022-12-04T05:36:01.413Z,101760.44
2022-12-04T05:36:32.934Z,101762.34
2022-12-04T05:37:04.494Z,101757.94
2022-12-04T05:37:37.661Z,101770.06
2022-12-04T05:38:09.109Z,101762.91
2022-12-04T05:38:40.829Z,101763.16
2022-12-04T05:39:12.310Z,101768.41
2022-12-04T05:39:44.428Z,101764.81
2022-12-04T05:40:16.205Z,101763.16
2022-12-04T05:40:47.806Z,101760.44
2022-12-04T05:41:19.340Z,101761.97
2022-12-04T05:41:50.850Z,101760.91
2022-12-04T05:42:22.408Z,101767.66
2022-12-04T05:42:53.856Z,101766.00
2022-12-04T05:43:25.335Z,101756.63
2022-12-04T05:43:56.813Z,101760.91
2022-12-04T05:44:28.306Z,101757.69
2022-12-04T05:44:59.753Z,101752.34
2022-12-04T05:45:31.291Z,101749.59
2022-12-04T05:46:04.790Z,101759.09
2022-12-04T05:46:36.357Z,101753.88
2022-12-04T05:47:08.017Z,101757.44
2022-12-04T05:47:40.939Z,101750.53
2022-12-04T05:48:12.447Z,101750.31
2022-12-04T05:48:43.897Z,101750.53
2022-12-04T05:49:15.487Z,101756.03
2022-12-04T05:49:47.036Z,101752.56
2022-12-04T05:50:18.531Z,101753.28
2022-12-04T05:50:49.979Z,101753.28
2022-12-04T05:51:21.440Z,101754.81
2022-12-04T05:51:52.930Z,101751.38
2022-12-04T05:52:24.546Z,101744.59
2022-12-04T05:52:55.985Z,101745.56
2022-12-04T05:53:27.448Z,101746.28
2022-12-04T05:53:58.986Z,101743.66
2022-12-04T05:54:30.421Z,101746.16
2022-12-04T05:55:01.851Z,101745.31
2022-12-04T05:55:33.309Z,101746.97
2022-12-04T05:56:06.255Z,101749.59
2022-12-04T05:56:37.714Z,101738.41
2022-12-04T05:57:09.370Z,101747.22
2022-12-04T05:57:40.822Z,101741.75
2022-12-04T05:58:12.255Z,101739.84
2022-12-04T05:58:43.930Z,101746.72
2022-12-04T05:59:15.620Z,101732.94
2022-12-04T05:59:47.181Z,101737.34
2022-12-04T06:00:18.916Z,101734.84
2022-12-04T06:00:50.374Z,101738.19
2022-12-04T06:01:23.657Z,101736.50
2022-12-04T06:01:55.222Z,101741.75
2022-12-04T06:02:26.862Z,101742.34
2022-12-04T06:02:58.445Z,101741.50
2022-12-04T06:03:30.020Z,101739.84
2022-12-04T06:04:01.764Z,101739.84
2022-12-04T06:04:33.232Z,101737.34
2022-12-04T06:05:05.142Z,101736.50
2022-12-04T06:05:36.650Z,101742.56
2022-12-04T06:06:21.750Z,101746.97
2022-12-04T06:06:54.581Z,101747.81
2022-12-04T06:07:26.182Z,101740.91
2022-12-04T06:07:57.675Z,101743.16
2022-12-04T06:08:29.202Z,101743.16
2022-12-04T06:09:00.901Z,101745.06
2022-12-04T06:09:32.593Z,101737.22
2022-12-04T06:10:05.193Z,101744.25
2022-12-04T06:10:36.671Z,101739.00
2022-12-04T06:11:29.731Z,101736.25
2022-12-04T06:12:01.172Z,101734.84
2022-12-04T06:12:32.659Z,101736.63
2022-12-04T06:13:05.861Z,101731.28
2022-12-04T06:13:37.313Z,101732.22
2022-12-04T06:14:12.127Z,101738.41
2022-12-04T06:14:43.610Z,101733.19
2022-12-04T06:15:15.123Z,101733.19
2022-12-04T06:15:46.600Z,101733.31
2022-12-04T06:16:23.903Z,101744.47
2022-12-04T06:16:55.625Z,101739.25
2022-12-04T06:17:27.153Z,101727.97
2022-12-04T06:17:58.926Z,101733.19
2022-12-04T06:18:30.454Z,101735.69
2022-12-04T06:19:06.965Z,101737.34
2022-12-04T06:19:39.507Z,101734.03
2022-12-04T06:20:12.086Z,101740.66
2022-12-04T06:20:43.919Z,101745.06
2022-12-04T06:21:15.418Z,101738.19
2022-12-04T06:21:48.828Z,101732.81
2022-12-04T06:22:20.277Z,101731.28
2022-12-04T06:22:51.705Z,101746.97
2022-12-04T06:23:23.141Z,101739.00
2022-12-04T06:23:54.922Z,101741.50
2022-12-04T06:24:26.473Z,101736.06
2022-12-04T06:24:57.921Z,101735.94
2022-12-04T06:25:29.614Z,101735.81
2022-12-04T06:26:07.332Z,101737.47
2022-12-04T06:26:51.969Z,101735.81
2022-12-04T06:27:29.255Z,101733.06
2022-12-04T06:28:00.817Z,101730.44
2022-12-04T06:28:32.306Z,101736.06
2022-12-04T06:29:03.804Z,101739.59
2022-12-04T06:29:35.291Z,101742.94
2022-12-04T06:30:07.468Z,101739.38
2022-12-04T06:30:39.067Z,101741.03
2022-12-04T06:31:12.933Z,101737.47
2022-12-04T06:31:44.524Z,101734.13
2022-12-04T06:32:21.140Z,101739.38
2022-12-04T06:32:53.436Z,101741.50
2022-12-04T06:33:24.967Z,101737.94
2022-12-04T06:33:57.474Z,101738.66
2022-12-04T06:34:29.692Z,101740.31
2022-12-04T06:35:01.797Z,101736.75
2022-12-04T06:35:33.229Z,101744.59
2022-12-04T06:36:08.294Z,101731.53
2022-12-04T06:36:39.897Z,101739.38
2022-12-04T06:37:11.393Z,101737.72
2022-12-04T06:37:42.899Z,101734.34
2022-12-04T06:38:14.445Z,101735.31
2022-12-04T06:38:45.920Z,101739.59
2022-12-04T06:39:19.143Z,101738.88
2022-12-04T06:39:50.968Z,101742.44
2022-12-04T06:40:22.425Z,101745.91
2022-12-04T06:40:54.317Z,101731.28
2022-12-04T06:41:26.984Z,101745.78
2022-12-04T06:41:58.432Z,101748.63
2022-12-04T06:42:29.875Z,101747.56
2022-12-04T06:43:01.317Z,101751.97
2022-12-04T06:43:32.968Z,101746.72
2022-12-04T06:44:04.618Z,101748.41
2022-12-04T06:44:36.182Z,101752.66
2022-12-04T06:45:08.272Z,101756.97
2022-12-04T06:45:39.817Z,101758.66
2022-12-04T06:46:17.123Z,101758.84
2022-12-04T06:46:50.062Z,101753.75
2022-12-04T06:47:21.725Z,101747.94
2022-12-04T06:47:53.150Z,101747.94